Time;durP1;ratioP1;P1;durP2;ratioP2;P2;SDS_P1;SDS_P2;PMS_P1;PMS_P2;Temp;Humidity;BMP_temperature;BMP_pressure;BME280_temperature;BME280_humidity;BME280_pressure;Samples;Min_cycle;Max_cycle;Signal;HPM_P1;HPM_P2
2023/10/03 00:01:36;;;;;;;38.38;26.08;;;18.40;84.80;;;;;;5133114;27;20115;-81
2023/10/03 00:04:02;;;;;;;44.03;25.58;;;18.40;84.70;;;;;;5113571;27;20039;-81
2023/10/03 00:06:28;;;;;;;37.85;25.48;;;18.40;84.70;;;;;;5112794;28;20372;-81
2023/10/03 00:08:54;;;;;;;40.92;26.85;;;18.40;84.60;;;;;;5078344;28;20080;-81
2023/10/03 00:11:20;;;;;;;36.78;23.77;;;18.40;84.60;;;;;;5111769;27;20081;-81
2023/10/03 00:13:47;;;;;;;37.95;24.38;;;18.40;84.60;;;;;;5099253;27;20050;-82
2023/10/03 00:16:13;;;;;;;43.05;25.98;;;18.40;84.50;;;;;;5125414;27;20042;-82
2023/10/03 00:18:39;;;;;;;38.72;25.45;;;18.40;84.50;;;;;;5129521;27;20071;-82
2023/10/03 00:21:05;;;;;;;40.30;26.35;;;18.40;84.50;;;;;;5129339;27;20039;-82
2023/10/03 00:23:32;;;;;;;38.92;26.85;;;18.40;84.40;;;;;;5112401;28;20050;-81
2023/10/03 00:25:59;;;;;;;40.15;28.25;;;18.40;84.40;;;;;;5100635;28;20058;-82
2023/10/03 00:28:30;;;;;;;43.63;30.23;;;18.30;84.30;;;;;;5126363;27;20105;-82
2023/10/03 00:30:56;;;;;;;38.05;26.33;;;18.40;84.30;;;;;;5091206;28;20437;-81
2023/10/03 00:33:25;;;;;;;38.13;24.55;;;18.30;84.20;;;;;;5126106;27;20040;-81
2023/10/03 00:35:55;;;;;;;40.22;27.30;;;18.30;84.30;;;;;;5126222;27;20051;-81
2023/10/03 00:38:22;;;;;;;39.28;26.52;;;18.30;84.20;;;;;;5108897;28;20032;-81
2023/10/03 00:40:49;;;;;;;43.92;27.85;;;18.30;84.20;;;;;;5108935;28;20079;-81
2023/10/03 00:43:15;;;;;;;42.08;27.65;;;18.30;84.20;;;;;;5108750;28;20469;-81
2023/10/03 00:45:42;;;;;;;40.25;26.48;;;18.30;84.10;;;;;;5108607;28;20514;-82
2023/10/03 00:48:08;;;;;;;37.53;26.88;;;18.30;84.10;;;;;;5091493;28;20185;-83
2023/10/03 00:50:35;;;;;;;37.28;25.20;;;18.30;84.10;;;;;;5091357;28;20065;-82
2023/10/03 00:53:08;;;;;;;37.55;25.73;;;18.30;84.10;;;;;;5074829;28;20048;-82
2023/10/03 00:55:34;;;;;;;38.70;26.75;;;18.30;84.10;;;;;;5108341;28;20059;-82
2023/10/03 00:58:07;;;;;;;38.55;25.85;;;18.20;84.00;;;;;;5108310;28;20483;-81
2023/10/03 01:00:37;;;;;;;41.28;27.00;;;18.20;84.00;;;;;;5100253;27;20035;-81
2023/10/03 01:03:03;;;;;;;38.10;25.65;;;18.20;84.00;;;;;;5075726;28;20032;-82
2023/10/03 01:05:29;;;;;;;43.63;26.42;;;18.20;84.00;;;;;;5091378;28;20090;-82
2023/10/03 01:07:55;;;;;;;41.55;26.27;;;18.20;83.90;;;;;;5108356;28;20072;-82
2023/10/03 01:10:21;;;;;;;39.55;24.95;;;18.20;83.80;;;;;;5091110;28;20169;-82
2023/10/03 01:12:48;;;;;;;37.95;24.67;;;18.20;83.80;;;;;;5091925;28;20115;-81
2023/10/03 01:15:22;;;;;;;36.42;23.83;;;18.20;83.70;;;;;;5091954;28;20364;-82
2023/10/03 01:17:49;;;;;;;37.45;24.10;;;18.20;83.60;;;;;;5091355;28;20036;-82
2023/10/03 01:20:22;;;;;;;34.85;23.85;;;18.20;83.50;;;;;;5103764;28;20057;-82
2023/10/03 01:22:48;;;;;;;35.80;22.85;;;18.20;83.40;;;;;;5115010;28;20031;-81
2023/10/03 01:25:15;;;;;;;37.83;22.80;;;18.20;83.30;;;;;;5080442;28;20047;-82
2023/10/03 01:27:42;;;;;;;35.95;22.55;;;18.20;83.20;;;;;;5094484;28;20079;-81
2023/10/03 01:30:08;;;;;;;33.58;21.75;;;18.20;83.10;;;;;;5099398;28;20074;-81
2023/10/03 01:32:59;;;;;;;32.90;21.67;;;18.20;83.00;;;;;;5098134;28;20504;-81
2023/10/03 01:35:25;;;;;;;36.17;22.00;;;18.20;83.40;;;;;;5114224;28;20463;-82
2023/10/03 01:37:51;;;;;;;32.50;21.02;;;18.10;82.90;;;;;;5131751;28;20509;-82
2023/10/03 01:40:17;;;;;;;32.33;19.55;;;18.10;82.80;;;;;;5114750;28;20035;-81
2023/10/03 01:42:45;;;;;;;36.35;21.70;;;18.10;82.70;;;;;;5131961;28;20092;-82
2023/10/03 01:45:19;;;;;;;37.20;22.65;;;18.10;82.70;;;;;;5097995;28;20043;-81
2023/10/03 01:47:50;;;;;;;34.72;20.83;;;18.20;82.70;;;;;;5114761;28;20132;-81
2023/10/03 01:50:20;;;;;;;33.78;19.85;;;18.10;82.60;;;;;;5131952;28;20394;-81
2023/10/03 01:52:47;;;;;;;36.78;20.80;;;18.10;82.50;;;;;;5114620;28;20389;-80
2023/10/03 01:55:15;;;;;;;34.40;19.70;;;18.10;82.40;;;;;;5131793;28;20035;-80
2023/10/03 01:57:41;;;;;;;36.25;21.13;;;18.10;82.30;;;;;;5131604;28;20043;-81
2023/10/03 02:00:28;;;;;;;33.47;20.00;;;18.10;82.30;;;;;;5126672;28;20578;-81
2023/10/03 02:03:04;;;;;;;33.97;20.27;;;18.10;82.20;;;;;;5095286;28;20116;-81
2023/10/03 02:05:33;;;;;;;32.90;19.17;;;18.10;82.10;;;;;;5094256;28;20122;-81
2023/10/03 02:08:04;;;;;;;33.17;20.02;;;18.10;82.10;;;;;;5095601;28;20075;-81
2023/10/03 02:10:32;;;;;;;33.05;19.98;;;18.10;82.00;;;;;;5115728;27;20447;-82
2023/10/03 02:12:58;;;;;;;33.15;20.15;;;18.10;81.90;;;;;;5086670;27;20042;-82
2023/10/03 02:15:28;;;;;;;35.70;19.83;;;18.10;81.80;;;;;;5101531;27;20043;-82
2023/10/03 02:17:56;;;;;;;35.10;19.90;;;18.10;81.70;;;;;;5118381;27;20039;-82
2023/10/03 02:20:25;;;;;;;35.92;20.27;;;18.10;81.60;;;;;;5109328;28;20607;-82
2023/10/03 02:22:54;;;;;;;32.42;18.35;;;18.10;81.50;;;;;;5114667;28;20043;-82
2023/10/03 02:25:28;;;;;;;32.28;18.35;;;18.10;81.40;;;;;;5132139;27;20039;-82
2023/10/03 02:27:56;;;;;;;34.83;20.35;;;18.20;81.30;;;;;;5097448;28;20036;-82
2023/10/03 02:30:23;;;;;;;31.20;18.10;;;18.20;81.30;;;;;;5097304;28;20089;-82
2023/10/03 02:32:52;;;;;;;30.17;18.98;;;18.20;81.20;;;;;;5097360;28;20072;-82
2023/10/03 02:35:21;;;;;;;36.25;20.33;;;18.20;81.10;;;;;;5131709;27;20490;-81
2023/10/03 02:37:47;;;;;;;32.05;19.08;;;18.20;81.00;;;;;;5114737;27;20496;-82
2023/10/03 02:40:15;;;;;;;36.92;20.02;;;18.20;80.90;;;;;;5097226;28;20032;-82
2023/10/03 02:42:40;;;;;;;31.52;17.88;;;18.20;80.90;;;;;;5114263;28;20130;-82
2023/10/03 02:45:08;;;;;;;36.10;20.52;;;18.20;80.80;;;;;;5117457;27;20128;-83
2023/10/03 02:47:36;;;;;;;32.15;18.77;;;18.20;80.70;;;;;;5120640;27;20078;-82
2023/10/03 02:50:02;;;;;;;32.83;18.38;;;18.20;80.70;;;;;;5100837;27;20096;-83
2023/10/03 02:52:28;;;;;;;33.85;18.42;;;18.20;80.60;;;;;;5134560;27;20038;-83
2023/10/03 02:54:54;;;;;;;28.83;18.35;;;18.20;80.60;;;;;;5117296;27;20039;-82
2023/10/03 02:57:21;;;;;;;33.42;18.30;;;18.20;80.60;;;;;;5117468;27;20039;-83
2023/10/03 02:59:47;;;;;;;27.92;17.25;;;18.20;80.60;;;;;;5074809;28;20036;-82
2023/10/03 03:02:14;;;;;;;29.48;17.83;;;18.20;80.60;;;;;;5077064;28;20051;-81
2023/10/03 03:04:43;;;;;;;30.73;17.65;;;18.20;80.50;;;;;;5093412;27;20040;-82
2023/10/03 03:07:10;;;;;;;29.60;17.58;;;18.20;80.50;;;;;;5093294;28;20101;-82
2023/10/03 03:09:36;;;;;;;30.75;18.27;;;18.20;80.40;;;;;;5076732;28;20083;-81
2023/10/03 03:12:06;;;;;;;30.27;16.88;;;18.30;80.50;;;;;;5042886;28;20066;-82
2023/10/03 03:14:32;;;;;;;30.45;18.92;;;18.20;80.40;;;;;;5110186;28;20071;-82
2023/10/03 03:16:57;;;;;;;33.60;19.63;;;18.20;80.40;;;;;;5076076;28;20443;-83
2023/10/03 03:19:26;;;;;;;34.00;18.13;;;18.30;80.40;;;;;;5070069;27;20031;-83
2023/10/03 03:21:57;;;;;;;34.50;18.92;;;18.30;80.30;;;;;;5120713;27;20091;-82
2023/10/03 03:24:33;;;;;;;30.75;16.50;;;18.30;80.60;;;;;;5108203;28;20047;-82
2023/10/03 03:26:59;;;;;;;33.33;17.85;;;18.30;80.20;;;;;;5142368;27;20063;-82
2023/10/03 03:29:35;;;;;;;31.05;18.25;;;18.30;80.10;;;;;;5109025;28;20498;-83
2023/10/03 03:32:04;;;;;;;35.10;18.95;;;18.30;80.10;;;;;;5116870;28;20495;-81
2023/10/03 03:34:30;;;;;;;33.58;17.77;;;18.30;80.00;;;;;;5132429;27;20043;-81
2023/10/03 03:37:14;;;;;;;29.27;16.80;;;18.30;80.00;;;;;;5088263;28;20075;-81
2023/10/03 03:39:52;;;;;;;31.02;18.48;;;18.30;79.90;;;;;;5088408;28;20046;-81
2023/10/03 03:42:17;;;;;;;29.08;17.00;;;18.30;79.90;;;;;;5087821;28;20424;-81
2023/10/03 03:44:43;;;;;;;32.03;17.10;;;18.40;79.90;;;;;;5099194;28;20104;-81
2023/10/03 03:47:11;;;;;;;30.13;17.25;;;18.40;79.90;;;;;;5148734;27;20035;-82
2023/10/03 03:49:37;;;;;;;31.30;17.55;;;18.40;79.90;;;;;;5096851;28;20043;-82
2023/10/03 03:52:05;;;;;;;31.73;18.85;;;18.40;79.90;;;;;;5073829;27;20035;-82
2023/10/03 03:54:30;;;;;;;33.28;18.80;;;18.40;79.80;;;;;;5083452;27;20039;-82
2023/10/03 03:56:56;;;;;;;30.20;17.60;;;18.40;79.70;;;;;;5099734;27;20050;-82
2023/10/03 03:59:22;;;;;;;31.30;17.40;;;18.40;79.70;;;;;;5116274;27;20100;-83
2023/10/03 04:01:50;;;;;;;31.35;17.05;;;18.50;79.70;;;;;;5099759;27;20126;-81
2023/10/03 04:04:16;;;;;;;30.35;18.60;;;18.50;79.70;;;;;;5116962;27;20412;-82
2023/10/03 04:06:42;;;;;;;29.85;17.30;;;18.50;79.70;;;;;;5133790;27;20069;-81
2023/10/03 04:09:08;;;;;;;32.25;17.38;;;18.50;79.70;;;;;;5084160;27;20055;-82
2023/10/03 04:11:37;;;;;;;31.75;17.40;;;18.50;79.70;;;;;;5099206;27;20074;-83
2023/10/03 04:14:05;;;;;;;29.35;16.88;;;18.50;79.70;;;;;;5088230;28;20036;-83
2023/10/03 04:16:38;;;;;;;28.77;17.38;;;18.50;79.70;;;;;;5096304;27;20463;-83
2023/10/03 04:19:05;;;;;;;29.65;16.98;;;18.50;79.70;;;;;;5097660;28;20083;-82
2023/10/03 04:21:32;;;;;;;29.38;16.98;;;18.50;79.70;;;;;;5095582;28;20516;-84
2023/10/03 04:23:59;;;;;;;28.60;17.30;;;18.50;79.80;;;;;;5095618;28;20104;-83
2023/10/03 04:26:25;;;;;;;25.48;15.23;;;18.50;79.80;;;;;;5095481;28;20035;-81
2023/10/03 04:28:54;;;;;;;28.52;16.73;;;18.50;79.90;;;;;;5078841;28;20067;-81
2023/10/03 04:31:20;;;;;;;26.75;16.17;;;18.50;79.90;;;;;;5077709;28;20036;-82
2023/10/03 04:33:46;;;;;;;27.02;16.15;;;18.50;80.00;;;;;;5112044;28;20039;-82
2023/10/03 04:36:12;;;;;;;30.63;16.10;;;18.50;80.10;;;;;;5095269;28;20062;-83
2023/10/03 04:38:40;;;;;;;28.67;15.70;;;18.50;80.30;;;;;;5078548;28;20035;-82
2023/10/03 04:41:09;;;;;;;29.15;15.88;;;18.50;80.40;;;;;;5062082;28;20043;-82
2023/10/03 04:43:35;;;;;;;28.45;15.15;;;18.50;80.70;;;;;;5123583;27;20389;-81
2023/10/03 04:46:02;;;;;;;27.02;14.82;;;18.60;80.90;;;;;;5081940;27;20373;-84
2023/10/03 04:48:28;;;;;;;27.45;15.27;;;18.60;81.00;;;;;;5086270;28;20036;-82
2023/10/03 04:50:54;;;;;;;31.65;15.57;;;18.60;81.00;;;;;;5074711;28;20070;-83
2023/10/03 04:53:20;;;;;;;27.08;15.52;;;18.60;81.30;;;;;;5108704;28;20036;-84
2023/10/03 04:55:48;;;;;;;26.10;14.93;;;18.70;81.40;;;;;;5108454;28;20118;-83
2023/10/03 04:58:14;;;;;;;25.33;14.48;;;18.70;81.40;;;;;;5088633;27;20092;-83
2023/10/03 05:00:40;;;;;;;27.10;14.63;;;18.70;81.30;;;;;;5110315;28;20042;-83
2023/10/03 05:03:09;;;;;;;23.85;13.00;;;18.70;81.30;;;;;;5118037;27;20043;-81
2023/10/03 05:05:35;;;;;;;20.85;12.55;;;18.70;81.50;;;;;;5115305;27;20035;-81
2023/10/03 05:08:02;;;;;;;22.40;12.70;;;18.80;81.60;;;;;;5115000;27;20039;-83
2023/10/03 05:10:31;;;;;;;26.00;13.05;;;18.80;81.70;;;;;;5098015;27;20092;-83
2023/10/03 05:12:57;;;;;;;27.55;13.15;;;18.80;81.90;;;;;;5118675;27;20126;-83
2023/10/03 05:15:26;;;;;;;26.27;12.95;;;18.90;82.00;;;;;;5094908;28;20035;-85
2023/10/03 05:17:54;;;;;;;23.92;13.07;;;18.90;82.00;;;;;;5111500;28;20039;-83
2023/10/03 05:20:20;;;;;;;23.02;11.60;;;18.90;82.00;;;;;;5111790;28;20039;-84
2023/10/03 05:22:46;;;;;;;21.33;12.13;;;18.90;82.10;;;;;;5109097;28;20446;-84
2023/10/03 05:25:17;;;;;;;20.65;12.25;;;19.00;82.10;;;;;;5115450;28;20035;-84
2023/10/03 05:27:44;;;;;;;21.42;13.55;;;19.00;82.10;;;;;;5115358;28;20047;-82
2023/10/03 05:30:11;;;;;;;20.23;12.13;;;19.00;82.10;;;;;;5095321;28;20036;-82
2023/10/03 05:32:38;;;;;;;26.50;12.52;;;19.10;82.10;;;;;;5095447;28;20074;-84
2023/10/03 05:35:05;;;;;;;26.58;12.63;;;19.10;82.10;;;;;;5129527;27;20615;-85
2023/10/03 05:37:34;;;;;;;27.23;11.90;;;19.10;82.10;;;;;;5096327;28;20043;-86
2023/10/03 05:40:11;;;;;;;24.20;12.00;;;19.10;82.00;;;;;;5082937;28;20135;-84
2023/10/03 05:42:40;;;;;;;21.35;11.50;;;19.10;82.00;;;;;;5102151;27;20428;-83
2023/10/03 05:45:12;;;;;;;19.77;10.55;;;19.10;82.00;;;;;;5075021;28;20105;-85
2023/10/03 05:47:45;;;;;;;21.20;11.23;;;19.10;81.90;;;;;;5112907;28;20039;-80
2023/10/03 05:50:23;;;;;;;22.52;10.57;;;19.10;81.90;;;;;;5103694;27;20058;-80
2023/10/03 05:52:50;;;;;;;20.27;10.23;;;19.10;81.70;;;;;;5092624;28;20479;-80
2023/10/03 05:55:16;;;;;;;16.10;8.65;;;19.20;81.70;;;;;;5098764;28;20039;-81
2023/10/03 05:57:45;;;;;;;21.75;9.55;;;19.20;81.60;;;;;;5099469;28;20031;-79
2023/10/03 06:00:17;;;;;;;23.23;9.63;;;19.10;81.30;;;;;;5132311;27;20035;-79
2023/10/03 06:02:50;;;;;;;18.73;8.27;;;19.10;81.10;;;;;;5098333;28;20050;-80
2023/10/03 06:05:16;;;;;;;14.57;8.48;;;19.10;81.00;;;;;;5062896;28;20437;-78
2023/10/03 06:07:43;;;;;;;16.02;8.20;;;19.20;81.00;;;;;;5120942;27;20136;-78
2023/10/03 06:10:10;;;;;;;15.23;7.40;;;19.10;80.80;;;;;;5114436;28;20070;-79
2023/10/03 06:12:37;;;;;;;16.63;8.68;;;19.20;80.80;;;;;;5093954;28;20039;-79
2023/10/03 06:15:04;;;;;;;15.55;6.47;;;19.20;80.70;;;;;;5108653;28;20036;-79
2023/10/03 06:17:34;;;;;;;20.70;7.50;;;19.20;80.60;;;;;;5121761;27;20044;-80
2023/10/03 06:19:59;;;;;;;16.73;7.15;;;19.20;80.50;;;;;;5106621;28;20573;-78
2023/10/03 06:22:25;;;;;;;12.75;5.97;;;19.10;80.30;;;;;;5091571;28;20043;-78
2023/10/03 06:24:57;;;;;;;14.70;5.68;;;19.10;80.20;;;;;;5106683;28;20040;-78
2023/10/03 06:27:23;;;;;;;15.32;5.78;;;19.20;80.10;;;;;;5108984;27;20479;-78
2023/10/03 06:29:49;;;;;;;12.20;5.05;;;19.10;79.80;;;;;;5073996;28;20036;-80
2023/10/03 06:32:14;;;;;;;14.30;5.47;;;19.10;79.70;;;;;;5074663;28;20387;-79
2023/10/03 06:34:40;;;;;;;16.35;5.30;;;19.10;79.50;;;;;;5090954;28;20111;-80
2023/10/03 06:37:06;;;;;;;10.73;4.43;;;19.10;79.40;;;;;;5091185;28;20050;-79
2023/10/03 06:39:31;;;;;;;10.45;3.80;;;19.10;79.20;;;;;;5108004;27;20047;-79
2023/10/03 06:41:58;;;;;;;11.07;3.92;;;19.10;79.00;;;;;;5100782;28;20490;-79
2023/10/03 06:44:24;;;;;;;12.15;4.18;;;19.10;79.00;;;;;;5077154;28;20052;-80
2023/10/03 06:46:51;;;;;;;13.23;4.40;;;19.10;78.80;;;;;;5076248;28;20043;-79
2023/10/03 06:49:19;;;;;;;12.75;4.07;;;19.10;78.80;;;;;;5096833;28;20048;-79
2023/10/03 06:51:49;;;;;;;15.45;4.82;;;19.10;78.80;;;;;;5097647;27;20039;-80
2023/10/03 06:54:16;;;;;;;10.40;4.25;;;19.10;78.70;;;;;;5096467;28;20067;-77
2023/10/03 06:56:42;;;;;;;10.70;3.83;;;19.10;78.70;;;;;;5097225;28;20042;-79
2023/10/03 06:59:10;;;;;;;13.55;3.80;;;19.10;78.60;;;;;;5114222;28;20044;-81
2023/10/03 07:01:37;;;;;;;11.40;4.05;;;19.10;78.50;;;;;;5080715;28;20534;-80
2023/10/03 07:04:07;;;;;;;10.68;4.68;;;19.10;78.50;;;;;;5096907;28;20035;-83
2023/10/03 07:06:33;;;;;;;11.73;4.80;;;19.10;78.50;;;;;;5097288;28;20039;-80
2023/10/03 07:09:01;;;;;;;16.70;5.18;;;19.10;78.50;;;;;;5063587;28;20122;-81
2023/10/03 07:11:27;;;;;;;10.32;4.30;;;19.10;78.70;;;;;;5079990;28;20055;-80
2023/10/03 07:13:54;;;;;;;11.02;4.40;;;19.10;79.00;;;;;;5063967;28;20035;-79
2023/10/03 07:16:20;;;;;;;11.68;4.88;;;19.00;79.20;;;;;;5113940;28;20048;-80
2023/10/03 07:18:46;;;;;;;13.27;5.25;;;19.10;79.50;;;;;;5064009;28;20032;-79
2023/10/03 07:21:11;;;;;;;10.23;4.75;;;19.00;79.70;;;;;;5080633;28;20142;-80
2023/10/03 07:23:39;;;;;;;11.60;4.63;;;19.00;79.80;;;;;;5117163;28;20035;-83
2023/10/03 07:26:04;;;;;;;15.18;5.47;;;19.00;79.90;;;;;;5065822;28;20050;-84
2023/10/03 07:28:32;;;;;;;16.65;5.40;;;19.00;80.10;;;;;;5098529;28;20032;-84
2023/10/03 07:30:57;;;;;;;11.68;5.50;;;19.00;80.30;;;;;;5098517;28;20126;-82
2023/10/03 07:33:23;;;;;;;11.48;4.78;;;19.00;80.30;;;;;;5072486;28;20070;-81
2023/10/03 07:35:50;;;;;;;13.90;5.10;;;19.00;80.50;;;;;;5089762;28;20212;-82
2023/10/03 07:38:18;;;;;;;10.98;4.90;;;18.90;80.50;;;;;;5122352;27;20035;-83
2023/10/03 07:40:44;;;;;;;14.85;5.95;;;18.90;80.70;;;;;;5116967;28;20486;-82
2023/10/03 07:43:19;;;;;;;12.07;5.43;;;18.90;81.40;;;;;;5101069;28;20043;-82
2023/10/03 07:45:44;;;;;;;10.82;5.47;;;18.90;81.20;;;;;;5100532;28;20039;-81
2023/10/03 07:48:10;;;;;;;16.70;7.05;;;18.90;81.40;;;;;;5121412;27;20089;-82
2023/10/03 07:50:43;;;;;;;9.15;3.97;;;18.90;81.70;;;;;;5117034;28;20142;-81
2023/10/03 07:53:21;;;;;;;9.70;4.40;;;18.90;81.80;;;;;;5120250;27;20043;-82
2023/10/03 07:55:47;;;;;;;11.75;5.15;;;18.90;81.80;;;;;;5101440;28;20111;-82
2023/10/03 07:58:14;;;;;;;11.68;4.55;;;18.80;81.70;;;;;;5100344;28;20063;-78
2023/10/03 08:00:44;;;;;;;10.77;4.38;;;18.80;81.90;;;;;;5098832;28;20078;-80
2023/10/03 08:03:11;;;;;;;10.18;4.85;;;18.70;81.80;;;;;;5118078;27;20080;-80
2023/10/03 08:05:39;;;;;;;15.00;4.80;;;18.70;81.80;;;;;;5084822;28;20043;-81
2023/10/03 08:08:05;;;;;;;13.45;4.05;;;18.70;81.80;;;;;;5116588;28;20043;-81
2023/10/03 08:10:32;;;;;;;10.30;3.58;;;18.70;81.90;;;;;;5089209;28;20046;-81
2023/10/03 08:12:59;;;;;;;13.60;3.90;;;18.60;81.80;;;;;;5103144;28;20051;-82
2023/10/03 08:15:31;;;;;;;9.98;3.20;;;18.60;81.60;;;;;;5101508;28;20169;-81
2023/10/03 08:17:58;;;;;;;12.73;3.97;;;18.60;81.50;;;;;;5100277;28;20495;-80
2023/10/03 08:20:24;;;;;;;9.50;3.22;;;18.50;81.50;;;;;;5097494;28;20039;-80
2023/10/03 08:22:53;;;;;;;9.82;2.20;;;18.50;81.30;;;;;;5098941;28;20039;-80
2023/10/03 08:25:22;;;;;;;11.38;2.33;;;18.50;81.20;;;;;;5116957;27;20092;-81
2023/10/03 08:27:49;;;;;;;8.23;2.47;;;18.40;81.00;;;;;;5115587;28;20047;-80
2023/10/03 08:30:27;;;;;;;7.70;2.00;;;18.40;81.00;;;;;;5117776;28;20040;-80
2023/10/03 08:32:55;;;;;;;8.98;2.13;;;18.30;80.90;;;;;;5102774;28;20047;-81
2023/10/03 08:35:34;;;;;;;11.85;2.58;;;18.30;80.90;;;;;;5113946;28;20027;-80
2023/10/03 08:38:04;;;;;;;7.03;2.15;;;18.30;80.70;;;;;;5081345;28;20519;-82
2023/10/03 08:40:38;;;;;;;6.85;1.80;;;18.20;80.60;;;;;;5079991;28;20043;-82
2023/10/03 08:43:07;;;;;;;5.95;1.92;;;18.20;80.70;;;;;;5080739;28;20398;-82
2023/10/03 08:45:41;;;;;;;4.47;1.30;;;18.10;80.70;;;;;;5096403;28;20401;-81
2023/10/03 08:48:08;;;;;;;5.03;1.23;;;18.10;80.80;;;;;;5113203;28;20050;-81
2023/10/03 08:50:46;;;;;;;6.82;1.40;;;18.10;80.80;;;;;;5096138;28;20051;-80
2023/10/03 08:53:16;;;;;;;6.50;1.65;;;18.10;80.80;;;;;;5095974;28;20071;-81
2023/10/03 08:55:48;;;;;;;7.80;1.75;;;18.10;80.70;;;;;;5079592;28;20126;-82
2023/10/03 08:58:18;;;;;;;2.80;1.30;;;18.10;80.50;;;;;;5096004;28;20039;-82
2023/10/03 09:00:49;;;;;;;6.78;1.92;;;18.00;80.60;;;;;;5096165;28;20031;-81
2023/10/03 09:03:17;;;;;;;3.72;0.68;;;18.10;80.50;;;;;;5112816;28;20056;-81
2023/10/03 09:05:43;;;;;;;6.18;1.50;;;18.10;80.30;;;;;;5112863;28;20044;-80
2023/10/03 09:08:11;;;;;;;3.72;0.80;;;18.00;79.90;;;;;;5096252;28;20054;-81
2023/10/03 09:10:57;;;;;;;2.58;0.73;;;18.00;79.80;;;;;;5112798;28;20058;-81
2023/10/03 09:13:25;;;;;;;4.30;0.80;;;18.00;79.80;;;;;;5113216;28;20084;-81
2023/10/03 09:16:08;;;;;;;6.15;1.15;;;17.90;79.80;;;;;;5113126;28;20036;-82
2023/10/03 09:18:41;;;;;;;3.60;0.60;;;17.90;79.60;;;;;;5095904;28;20043;-81
2023/10/03 09:21:23;;;;;;;5.55;1.00;;;17.80;79.60;;;;;;5097067;28;20444;-81
2023/10/03 09:24:02;;;;;;;5.70;1.17;;;17.80;79.60;;;;;;5081887;28;20436;-82
2023/10/03 09:26:47;;;;;;;2.70;0.50;;;17.80;79.70;;;;;;5112949;28;20036;-82
2023/10/03 09:29:30;;;;;;;5.70;1.35;;;17.80;79.60;;;;;;5112820;28;20040;-81
2023/10/03 09:32:07;;;;;;;2.35;0.80;;;17.80;79.80;;;;;;5112509;28;20039;-81
2023/10/03 09:34:34;;;;;;;4.38;0.85;;;17.80;79.90;;;;;;5131362;27;20100;-82
2023/10/03 09:37:03;;;;;;;4.18;1.00;;;17.70;79.80;;;;;;5112616;28;20046;-81
2023/10/03 09:39:39;;;;;;;3.42;0.68;;;17.70;79.30;;;;;;5091151;28;20054;-79
2023/10/03 09:42:15;;;;;;;3.60;0.50;;;17.80;79.00;;;;;;5086803;28;20147;-80
2023/10/03 09:44:44;;;;;;;4.57;0.70;;;17.80;79.00;;;;;;5103396;28;20115;-80
2023/10/03 09:47:12;;;;;;;3.60;0.75;;;17.70;78.80;;;;;;5088779;28;20051;-80
2023/10/03 09:49:39;;;;;;;6.57;1.10;;;17.80;78.80;;;;;;5072458;28;20062;-80
2023/10/03 09:52:27;;;;;;;2.50;0.80;;;17.80;78.50;;;;;;5088080;28;20470;-80
2023/10/03 09:54:55;;;;;;;5.40;0.88;;;17.80;77.80;;;;;;5088042;28;20044;-79
2023/10/03 09:57:21;;;;;;;5.85;0.70;;;17.80;77.90;;;;;;5087162;28;20031;-80
2023/10/03 09:59:48;;;;;;;3.97;0.80;;;17.80;77.80;;;;;;5069750;28;20044;-80
2023/10/03 10:02:33;;;;;;;5.20;0.63;;;17.80;77.80;;;;;;5104805;28;20039;-85
2023/10/03 10:05:19;;;;;;;3.95;0.45;;;17.80;77.70;;;;;;5089634;28;20608;-81
2023/10/03 10:08:08;;;;;;;3.35;0.63;;;17.80;77.50;;;;;;5086574;28;20138;-82
2023/10/03 10:10:34;;;;;;;4.20;0.95;;;17.80;77.30;;;;;;5120859;28;20096;-82
2023/10/03 10:13:12;;;;;;;3.15;0.63;;;17.70;77.40;;;;;;5087859;28;20051;-81
2023/10/03 10:16:13;;;;;;;3.83;0.70;;;17.70;77.30;;;;;;5103192;28;20075;-82
2023/10/03 10:18:45;;;;;;;2.58;0.70;;;17.70;77.00;;;;;;5088895;28;20028;-82
2023/10/03 10:21:20;;;;;;;3.70;0.90;;;17.70;77.20;;;;;;5104770;28;20138;-81
2023/10/03 10:24:20;;;;;;;1.98;0.57;;;17.70;76.90;;;;;;5106243;28;20040;-82
2023/10/03 10:26:52;;;;;;;3.22;0.70;;;17.60;76.70;;;;;;5122969;28;20035;-84
2023/10/03 10:29:19;;;;;;;3.25;0.68;;;17.50;76.90;;;;;;5090143;28;20522;-83
2023/10/03 10:31:58;;;;;;;4.85;0.98;;;17.50;76.90;;;;;;5125118;27;20032;-83
2023/10/03 10:35:01;;;;;;;4.30;0.90;;;17.50;77.10;;;;;;5108839;28;20070;-83
2023/10/03 10:37:18;;;;;;;;;;;17.40;76.90;;;;;;5108162;28;20436;-83
2023/10/03 10:39:56;;;;;;;3.63;0.73;;;17.30;76.80;;;;;;5091361;28;20069;-82
2023/10/03 10:42:26;;;;;;;3.95;0.88;;;17.20;77.60;;;;;;5092964;28;20035;-85
2023/10/03 10:45:04;;;;;;;2.85;0.85;;;17.20;77.50;;;;;;5091742;28;20500;-83
2023/10/03 10:47:41;;;;;;;3.00;0.70;;;17.20;77.80;;;;;;5143813;27;20039;-84
2023/10/03 10:50:07;;;;;;;3.58;1.17;;;17.20;78.30;;;;;;5124780;27;20410;-84
2023/10/03 10:52:53;;;;;;;2.97;1.17;;;17.20;78.50;;;;;;5059635;28;20039;-82
2023/10/03 10:55:23;;;;;;;4.55;0.90;;;17.10;78.80;;;;;;5093443;28;20076;-83
2023/10/03 10:58:12;;;;;;;7.47;1.50;;;17.10;79.20;;;;;;5107151;28;20035;-83
2023/10/03 11:00:39;;;;;;;6.35;1.10;;;17.20;79.30;;;;;;5094384;28;20043;-84
2023/10/03 11:03:09;;;;;;;6.93;1.48;;;17.10;79.40;;;;;;5093893;28;20042;-83
2023/10/03 11:05:47;;;;;;;6.78;2.22;;;17.20;79.60;;;;;;5095789;28;20039;-85
2023/10/03 11:08:13;;;;;;;2.67;1.10;;;17.20;79.70;;;;;;5092690;28;20436;-84
2023/10/03 11:10:56;;;;;;;4.93;1.45;;;17.20;79.70;;;;;;5092778;28;20052;-84
2023/10/03 11:13:22;;;;;;;5.03;1.00;;;17.20;79.40;;;;;;5126528;27;20044;-86
2023/10/03 11:15:48;;;;;;;4.60;1.05;;;17.20;79.30;;;;;;5092396;28;20104;-85
2023/10/03 11:18:15;;;;;;;4.45;1.48;;;17.20;78.90;;;;;;5092034;28;20032;-84
2023/10/03 11:20:41;;;;;;;5.22;1.88;;;17.20;77.80;;;;;;5107911;28;20394;-83
2023/10/03 11:23:18;;;;;;;4.20;1.35;;;17.10;77.00;;;;;;5110312;28;20039;-84
2023/10/03 11:25:57;;;;;;;5.63;1.92;;;17.10;76.80;;;;;;5110436;27;20126;-84
2023/10/03 11:28:29;;;;;;;6.25;1.58;;;17.00;76.50;;;;;;5093901;28;20040;-84
2023/10/03 11:31:05;;;;;;;8.32;1.95;;;17.00;76.70;;;;;;5093314;28;20075;-84
2023/10/03 11:33:45;;;;;;;7.13;1.73;;;17.00;76.80;;;;;;5104096;28;20043;-84
2023/10/03 11:36:12;;;;;;;6.68;2.45;;;16.90;76.90;;;;;;5092692;28;20505;-85
2023/10/03 11:38:50;;;;;;;5.45;2.08;;;16.90;77.00;;;;;;5124365;27;20027;-82
2023/10/03 11:41:33;;;;;;;5.10;1.75;;;16.90;77.00;;;;;;5090516;28;20051;-84
2023/10/03 11:43:59;;;;;;;4.30;1.98;;;16.90;77.20;;;;;;5139149;27;20039;-82
2023/10/03 11:46:25;;;;;;;7.13;2.38;;;16.80;77.60;;;;;;5088209;28;20490;-83
2023/10/03 11:48:59;;;;;;;6.45;1.80;;;16.80;77.80;;;;;;5091253;28;20329;-83
2023/10/03 11:51:25;;;;;;;7.40;1.85;;;16.80;77.90;;;;;;5108436;28;20037;-82
2023/10/03 11:53:53;;;;;;;8.55;1.90;;;16.80;77.90;;;;;;5059075;28;20099;-82
2023/10/03 11:56:18;;;;;;;7.50;2.13;;;16.80;78.00;;;;;;5105183;28;20051;-82
2023/10/03 11:58:44;;;;;;;5.90;2.38;;;16.80;78.10;;;;;;5109922;27;20490;-82
2023/10/03 12:01:10;;;;;;;5.40;1.92;;;16.80;78.20;;;;;;5090735;28;20039;-82
2023/10/03 12:03:37;;;;;;;5.32;2.08;;;16.80;78.30;;;;;;5058291;28;20039;-82
2023/10/03 12:06:04;;;;;;;7.78;2.42;;;16.80;78.40;;;;;;5088919;28;20537;-82
2023/10/03 12:08:32;;;;;;;9.27;2.33;;;16.80;78.50;;;;;;5089831;28;20058;-81
2023/10/03 12:10:58;;;;;;;5.40;2.30;;;16.80;78.60;;;;;;5088998;28;20439;-82
2023/10/03 12:13:24;;;;;;;5.40;1.63;;;16.80;78.70;;;;;;5103451;27;20152;-81
2023/10/03 12:15:50;;;;;;;6.25;2.03;;;16.80;78.90;;;;;;5122802;27;20086;-82
2023/10/03 12:18:16;;;;;;;3.80;1.77;;;16.90;79.10;;;;;;5072510;28;20058;-81
2023/10/03 12:20:44;;;;;;;7.38;1.92;;;16.90;79.20;;;;;;5057489;28;20507;-81
2023/10/03 12:23:10;;;;;;;8.43;2.65;;;16.90;79.30;;;;;;5074215;28;20051;-82
2023/10/03 12:25:35;;;;;;;5.55;2.35;;;16.90;79.50;;;;;;5090790;28;20049;-82
2023/10/03 12:28:01;;;;;;;7.15;3.45;;;16.90;79.50;;;;;;5089234;28;20031;-81
2023/10/03 12:30:27;;;;;;;8.32;3.05;;;16.90;79.60;;;;;;5090002;28;20410;-82
2023/10/03 12:32:55;;;;;;;6.95;2.42;;;17.00;79.80;;;;;;5107330;28;20031;-81
2023/10/03 12:35:21;;;;;;;9.93;3.30;;;17.00;79.90;;;;;;5058684;28;20034;-82
2023/10/03 12:37:48;;;;;;;6.97;2.75;;;17.00;79.90;;;;;;5091197;28;20031;-83
2023/10/03 12:40:18;;;;;;;6.38;2.35;;;17.00;79.90;;;;;;5090726;28;20395;-83
2023/10/03 12:42:50;;;;;;;9.48;2.40;;;17.10;79.70;;;;;;5089285;28;20096;-83
2023/10/03 12:45:21;;;;;;;7.35;2.17;;;17.10;79.50;;;;;;5088473;28;20533;-83
2023/10/03 12:47:48;;;;;;;9.57;2.38;;;17.10;79.20;;;;;;5089761;28;20371;-82